createdAt,value
2023-02-24T00:00:24.914Z,8.99
2023-02-24T00:02:51.216Z,8.72
2023-02-24T00:05:17.524Z,8.88
2023-02-24T00:07:44.084Z,8.57
2023-02-24T00:10:10.391Z,8.87
2023-02-24T00:12:36.676Z,8.79
2023-02-24T00:15:03.009Z,8.25
2023-02-24T00:17:29.323Z,8.64
2023-02-24T00:19:55.562Z,8.50
2023-02-24T00:22:21.827Z,8.74
2023-02-24T00:24:48.081Z,8.59
2023-02-24T00:27:14.347Z,8.94
2023-02-24T00:29:40.616Z,8.44
2023-02-24T00:32:07.357Z,9.08
2023-02-24T00:34:33.753Z,9.65
2023-02-24T00:37:00.014Z,10.13
2023-02-24T00:39:26.290Z,9.66
2023-02-24T00:41:52.566Z,9.59
2023-02-24T00:44:18.831Z,9.05
2023-02-24T00:46:45.077Z,9.55
2023-02-24T00:49:11.339Z,8.80
2023-02-24T00:51:37.601Z,8.78
2023-02-24T00:54:03.940Z,8.24
2023-02-24T00:56:30.358Z,8.62
2023-02-24T00:58:56.619Z,8.69
2023-02-24T01:01:23.240Z,8.96
2023-02-24T01:03:49.645Z,9.06
2023-02-24T01:06:15.935Z,8.56
2023-02-24T01:08:42.193Z,8.83
2023-02-24T01:11:08.452Z,8.71
2023-02-24T01:13:34.706Z,8.74
2023-02-24T01:16:00.982Z,8.89
2023-02-24T01:18:27.236Z,8.62
2023-02-24T01:20:53.526Z,8.72
2023-02-24T01:23:19.798Z,9.05
2023-02-24T01:25:46.090Z,9.63
2023-02-24T01:28:12.366Z,9.94
2023-02-24T01:30:38.667Z,10.12
2023-02-24T01:33:05.095Z,10.39
2023-02-24T01:35:31.523Z,9.85
2023-02-24T01:37:57.782Z,9.35
2023-02-24T01:40:24.050Z,9.76
2023-02-24T01:42:50.313Z,10.39
2023-02-24T01:45:16.556Z,9.65
2023-02-24T01:47:42.812Z,9.73
2023-02-24T01:50:09.078Z,9.86
2023-02-24T01:52:35.347Z,10.46
2023-02-24T01:55:01.626Z,10.46
2023-02-24T01:57:27.946Z,10.23
2023-02-24T01:59:54.211Z,10.08
2023-02-24T02:02:20.494Z,10.07
2023-02-24T02:04:46.828Z,9.89
2023-02-24T02:07:13.128Z,10.04
2023-02-24T02:09:39.388Z,10.27
2023-02-24T02:12:05.630Z,11.62
2023-02-24T02:14:31.948Z,12.15
2023-02-24T02:16:58.233Z,11.54
2023-02-24T02:19:24.505Z,11.01
2023-02-24T02:21:50.815Z,10.59
2023-02-24T02:24:17.064Z,10.20
2023-02-24T02:26:43.314Z,10.21
2023-02-24T02:29:09.572Z,10.16
2023-02-24T02:31:36.052Z,10.63
2023-02-24T02:34:02.480Z,11.31
2023-02-24T02:36:28.755Z,11.94
2023-02-24T02:38:55.036Z,12.03
2023-02-24T02:41:21.515Z,11.94
2023-02-24T02:43:47.980Z,10.94
2023-02-24T02:46:14.344Z,11.01
2023-02-24T02:48:40.623Z,11.34
2023-02-24T02:51:06.868Z,10.65
2023-02-24T02:53:33.155Z,9.74
2023-02-24T02:55:59.413Z,10.24
2023-02-24T02:58:25.684Z,10.26
2023-02-24T03:00:51.950Z,9.93
2023-02-24T03:03:18.240Z,10.02
2023-02-24T03:05:44.513Z,10.63
2023-02-24T03:08:10.801Z,11.27
2023-02-24T03:10:37.047Z,11.65
2023-02-24T03:13:03.308Z,11.43
2023-02-24T03:15:29.567Z,10.24
2023-02-24T03:17:55.817Z,9.83
2023-02-24T03:20:22.106Z,10.27
2023-02-24T03:22:48.385Z,9.79
2023-02-24T03:25:14.686Z,10.15
2023-02-24T03:27:40.957Z,10.67
2023-02-24T03:30:07.249Z,10.52
2023-02-24T03:32:33.932Z,10.02
2023-02-24T03:35:00.263Z,9.83
2023-02-24T03:37:26.520Z,9.55
2023-02-24T03:39:52.794Z,9.91
2023-02-24T03:42:19.061Z,10.39
2023-02-24T03:44:45.329Z,10.09
2023-02-24T03:47:11.606Z,10.33
2023-02-24T03:49:37.901Z,10.09
2023-02-24T03:52:04.165Z,10.20
2023-02-24T03:54:30.450Z,10.05
2023-02-24T03:56:56.709Z,10.02
2023-02-24T03:59:22.971Z,9.39
2023-02-24T04:01:49.209Z,9.79
2023-02-24T04:04:15.483Z,9.87
2023-02-24T04:06:41.842Z,10.23
2023-02-24T04:09:08.167Z,10.58
2023-02-24T04:11:34.449Z,11.76
2023-02-24T04:14:00.714Z,11.24
2023-02-24T04:16:26.966Z,11.31
2023-02-24T04:18:53.254Z,11.55
2023-02-24T04:21:19.799Z,11.74
2023-02-24T04:23:46.219Z,12.54
2023-02-24T04:26:12.501Z,12.80
2023-02-24T04:28:38.798Z,12.20
2023-02-24T04:31:05.140Z,12.51
2023-02-24T04:33:31.501Z,12.12
2023-02-24T04:35:57.785Z,12.08
2023-02-24T04:38:24.061Z,11.75
2023-02-24T04:40:50.315Z,12.02
2023-02-24T04:43:16.583Z,11.85
2023-02-24T04:45:42.886Z,11.72
2023-02-24T04:48:09.149Z,11.13
2023-02-24T04:50:35.475Z,11.14
2023-02-24T04:53:01.775Z,10.76
2023-02-24T04:55:28.041Z,11.80
2023-02-24T04:57:54.307Z,11.95
2023-02-24T05:00:20.604Z,12.12
2023-02-24T05:02:46.870Z,12.09
2023-02-24T05:05:13.111Z,11.94
2023-02-24T05:07:39.369Z,11.74
2023-02-24T05:10:05.631Z,12.14
2023-02-24T05:12:31.916Z,12.74
2023-02-24T05:14:58.187Z,13.50
2023-02-24T05:17:24.452Z,13.22
2023-02-24T05:19:50.728Z,14.46
2023-02-24T05:22:17.013Z,14.16
2023-02-24T05:24:43.315Z,13.51
2023-02-24T05:27:09.600Z,14.08
2023-02-24T05:29:35.900Z,14.41
2023-02-24T05:32:02.248Z,14.27
2023-02-24T05:34:28.606Z,14.83
2023-02-24T05:36:54.905Z,15.71
2023-02-24T05:39:21.224Z,15.68
2023-02-24T05:41:47.503Z,15.13
2023-02-24T05:44:13.779Z,15.19
2023-02-24T05:46:40.150Z,14.97
2023-02-24T05:49:06.466Z,15.54
2023-02-24T05:51:32.743Z,14.58
2023-02-24T05:53:59.015Z,14.78
2023-02-24T05:56:25.275Z,14.98
2023-02-24T05:58:53.496Z,15.42
2023-02-24T06:01:21.037Z,14.87
2023-02-24T06:03:47.521Z,15.39
2023-02-24T06:06:13.808Z,15.96
2023-02-24T06:08:40.179Z,15.51
2023-02-24T06:11:06.458Z,15.88
2023-02-24T06:13:32.773Z,16.16
2023-02-24T06:15:59.091Z,16.76
2023-02-24T06:18:25.362Z,16.67
2023-02-24T06:20:51.664Z,16.69
2023-02-24T06:23:17.942Z,16.21
2023-02-24T06:25:44.215Z,16.34
2023-02-24T06:28:10.486Z,16.78
2023-02-24T06:30:36.766Z,16.58
2023-02-24T06:33:03.095Z,16.71
2023-02-24T06:35:29.391Z,16.72
2023-02-24T06:37:55.658Z,16.73
2023-02-24T06:40:21.940Z,17.44
2023-02-24T06:42:48.245Z,16.80
2023-02-24T06:45:14.519Z,17.40
2023-02-24T06:47:40.865Z,17.01
2023-02-24T06:50:07.120Z,17.75
2023-02-24T06:52:33.375Z,17.93
2023-02-24T06:54:59.686Z,17.57
2023-02-24T06:57:25.971Z,17.89
2023-02-24T06:59:52.278Z,17.41
2023-02-24T07:02:18.541Z,17.45
2023-02-24T07:04:44.848Z,17.40
2023-02-24T07:07:11.133Z,17.68
2023-02-24T07:09:37.398Z,17.29
2023-02-24T07:12:03.682Z,17.69
2023-02-24T07:14:29.976Z,18.44
2023-02-24T07:16:56.278Z,17.90
2023-02-24T07:19:22.566Z,18.94
2023-02-24T07:21:48.834Z,18.31
2023-02-24T07:24:15.091Z,18.13
2023-02-24T07:26:41.354Z,18.20
2023-02-24T07:29:07.862Z,18.83
2023-02-24T07:31:34.261Z,18.92
2023-02-24T07:34:00.575Z,18.81
2023-02-24T07:36:26.906Z,18.65
2023-02-24T07:38:53.271Z,18.18
2023-02-24T07:41:19.933Z,17.81
2023-02-24T07:43:46.383Z,18.73
2023-02-24T07:46:12.799Z,18.36
2023-02-24T07:48:39.124Z,18.18
2023-02-24T07:51:05.503Z,18.48
2023-02-24T07:53:31.795Z,17.32
2023-02-24T07:55:58.061Z,17.20
2023-02-24T07:58:24.323Z,17.94
2023-02-24T08:00:50.608Z,18.10
2023-02-24T08:03:17.036Z,17.51
2023-02-24T08:05:43.383Z,17.44
2023-02-24T08:08:09.710Z,17.39
2023-02-24T08:10:35.995Z,17.71
2023-02-24T08:13:02.301Z,18.12
2023-02-24T08:15:28.591Z,17.88
2023-02-24T08:17:57.426Z,17.91
2023-02-24T08:20:24.615Z,18.27
2023-02-24T08:22:50.892Z,18.53
2023-02-24T08:25:17.164Z,18.29
2023-02-24T08:27:43.434Z,18.61
2023-02-24T08:30:09.694Z,18.47
2023-02-24T08:32:36.069Z,18.11
2023-02-24T08:35:02.510Z,17.49
2023-02-24T08:37:28.779Z,17.75
2023-02-24T08:39:55.033Z,17.30
2023-02-24T08:42:21.297Z,17.99
2023-02-24T08:44:47.576Z,17.52
2023-02-24T08:47:13.872Z,17.48
2023-02-24T08:49:40.135Z,17.22
2023-02-24T08:52:06.382Z,17.72
2023-02-24T08:54:32.649Z,17.14
2023-02-24T08:56:58.929Z,17.52
2023-02-24T08:59:25.182Z,17.62
2023-02-24T09:02:03.714Z,18.13
2023-02-24T09:04:30.820Z,17.60
2023-02-24T09:07:00.259Z,16.97
2023-02-24T09:09:36.127Z,16.79
2023-02-24T09:12:02.434Z,16.17
2023-02-24T09:14:29.296Z,16.44
2023-02-24T09:16:55.852Z,16.75
2023-02-24T09:19:22.121Z,16.26
2023-02-24T09:21:48.394Z,16.90
2023-02-24T09:24:16.862Z,16.06
2023-02-24T09:26:43.311Z,16.28
2023-02-24T09:29:09.659Z,15.88
2023-02-24T09:31:37.538Z,15.74
2023-02-24T09:34:04.192Z,15.96
2023-02-24T09:36:30.464Z,15.66
2023-02-24T09:38:56.747Z,16.45
2023-02-24T09:41:23.033Z,16.04
2023-02-24T09:43:49.331Z,16.10
2023-02-24T09:46:15.759Z,15.97
2023-02-24T09:48:42.159Z,15.49
2023-02-24T09:51:08.430Z,14.97
2023-02-24T09:53:34.772Z,15.73
2023-02-24T09:56:01.073Z,15.73
2023-02-24T09:58:41.743Z,15.76
2023-02-24T10:01:09.622Z,14.97
2023-02-24T10:03:35.986Z,15.18
2023-02-24T10:06:02.273Z,15.14
2023-02-24T10:08:28.594Z,15.60
2023-02-24T10:10:54.911Z,16.36
2023-02-24T10:13:21.232Z,16.19
2023-02-24T10:15:47.601Z,15.99
2023-02-24T10:18:14.039Z,16.37
2023-02-24T10:20:40.461Z,16.41
2023-02-24T10:23:06.844Z,16.24
2023-02-24T10:25:33.136Z,17.08
2023-02-24T10:27:59.421Z,17.14
2023-02-24T10:30:25.844Z,16.85
2023-02-24T10:32:52.210Z,17.16
2023-02-24T10:35:18.553Z,17.04
2023-02-24T10:37:44.835Z,17.50
2023-02-24T10:40:11.104Z,17.76
2023-02-24T10:42:37.380Z,18.40
2023-02-24T10:47:35.803Z,19.92
2023-02-24T10:50:02.069Z,20.18
2023-02-24T10:52:28.383Z,19.54
2023-02-24T10:54:54.739Z,19.77
2023-02-24T10:57:21.032Z,19.96
2023-02-24T10:59:47.403Z,19.87
2023-02-24T11:02:13.777Z,19.73
2023-02-24T11:04:40.239Z,20.57
2023-02-24T11:07:06.551Z,20.14
2023-02-24T11:09:32.838Z,20.47
2023-02-24T11:11:59.098Z,20.92
2023-02-24T11:14:25.451Z,19.99
2023-02-24T11:16:51.728Z,19.77
2023-02-24T11:19:18.125Z,20.57
2023-02-24T11:21:44.421Z,20.48
2023-02-24T11:24:10.777Z,20.46
2023-02-24T11:26:37.203Z,19.87
2023-02-24T11:29:03.467Z,19.59
2023-02-24T11:31:29.844Z,19.71
2023-02-24T11:33:56.206Z,19.16
2023-02-24T11:36:22.496Z,19.18
2023-02-24T11:38:48.760Z,19.05
2023-02-24T11:41:15.090Z,19.38
2023-02-24T11:43:41.350Z,19.55
2023-02-24T11:46:07.657Z,18.50
2023-02-24T11:48:33.958Z,18.12
2023-02-24T11:51:00.237Z,18.01
2023-02-24T11:53:26.516Z,17.53
2023-02-24T11:55:52.824Z,17.14
2023-02-24T11:58:19.101Z,16.59
2023-02-24T12:00:46.960Z,15.46
2023-02-24T12:03:14.300Z,15.65
2023-02-24T12:05:40.644Z,15.14
2023-02-24T12:08:06.984Z,15.26
2023-02-24T12:10:33.290Z,15.02
2023-02-24T12:12:59.572Z,15.66
2023-02-24T12:15:25.849Z,15.12
2023-02-24T12:17:52.182Z,14.85
2023-02-24T12:20:18.526Z,15.03
2023-02-24T12:22:44.823Z,15.56
2023-02-24T12:25:11.088Z,15.29
2023-02-24T12:27:37.352Z,15.20
2023-02-24T12:30:03.604Z,14.90
2023-02-24T12:32:30.000Z,15.02
2023-02-24T12:34:56.360Z,15.17
2023-02-24T12:37:22.639Z,15.80
2023-02-24T12:39:48.893Z,15.50
2023-02-24T12:42:15.194Z,14.50
2023-02-24T12:44:41.452Z,15.24
2023-02-24T12:47:07.723Z,14.95
2023-02-24T12:49:34.034Z,14.99
2023-02-24T12:52:00.292Z,15.37
2023-02-24T12:54:26.575Z,14.74
2023-02-24T12:56:52.906Z,14.98
2023-02-24T12:59:19.232Z,15.04
2023-02-24T13:01:45.520Z,14.76
2023-02-24T13:04:11.791Z,15.26
2023-02-24T13:06:38.088Z,15.98
2023-02-24T13:09:04.381Z,14.83
2023-02-24T13:11:30.705Z,15.73
2023-02-24T13:13:56.976Z,15.33
2023-02-24T13:16:23.286Z,14.77
2023-02-24T13:18:49.581Z,14.11
2023-02-24T13:21:15.901Z,13.86
2023-02-24T13:23:42.202Z,13.88
2023-02-24T13:26:08.483Z,13.92
2023-02-24T13:28:34.794Z,13.07
2023-02-24T13:31:01.175Z,12.67
2023-02-24T13:33:27.482Z,13.48
2023-02-24T13:35:54.762Z,12.79
2023-02-24T13:38:22.301Z,12.01
2023-02-24T13:40:48.601Z,12.73
2023-02-24T13:43:14.880Z,12.14
2023-02-24T13:45:41.177Z,12.40
2023-02-24T13:48:07.445Z,11.39
2023-02-24T13:50:34.105Z,11.28
2023-02-24T13:53:00.389Z,11.05
2023-02-24T13:55:26.657Z,11.09
2023-02-24T13:57:53.036Z,10.95
2023-02-24T14:00:19.316Z,11.43
2023-02-24T14:02:45.664Z,11.34
2023-02-24T14:05:11.972Z,11.89
2023-02-24T14:07:38.246Z,11.35
2023-02-24T14:10:04.515Z,11.45
2023-02-24T14:12:30.793Z,11.32
2023-02-24T14:14:57.069Z,10.91
2023-02-24T14:17:23.427Z,11.37
2023-02-24T14:19:49.695Z,11.47
2023-02-24T14:22:16.006Z,11.66
2023-02-24T14:24:42.287Z,11.95
2023-02-24T14:27:08.562Z,12.55
2023-02-24T14:29:43.225Z,12.13
2023-02-24T14:32:10.160Z,11.31
2023-02-24T14:34:36.519Z,10.91
2023-02-24T14:37:02.816Z,11.56
2023-02-24T14:39:29.164Z,11.01
2023-02-24T14:41:55.461Z,11.74
2023-02-24T14:44:21.793Z,12.51
2023-02-24T14:46:48.132Z,11.95
2023-02-24T14:49:14.401Z,13.54
2023-02-24T14:51:40.732Z,14.31
2023-02-24T14:54:06.999Z,14.47
2023-02-24T14:56:33.367Z,14.73
2023-02-24T14:58:59.708Z,14.77
2023-02-24T15:01:26.096Z,14.73
2023-02-24T15:03:52.457Z,13.75
2023-02-24T15:06:18.779Z,14.30
2023-02-24T15:08:45.036Z,14.24
2023-02-24T15:11:11.301Z,14.97
2023-02-24T15:13:37.621Z,13.98
2023-02-24T15:16:03.950Z,14.36
2023-02-24T15:18:30.269Z,14.17
2023-02-24T15:20:56.566Z,13.45
2023-02-24T15:23:22.890Z,13.63
2023-02-24T15:25:49.171Z,13.60
2023-02-24T15:28:15.506Z,13.54
2023-02-24T15:30:41.819Z,14.14
2023-02-24T15:33:08.087Z,14.69
2023-02-24T15:35:34.365Z,13.96
2023-02-24T15:38:00.654Z,14.74
2023-02-24T15:40:26.940Z,14.66
2023-02-24T15:42:53.194Z,15.02
2023-02-24T15:45:19.594Z,14.37
2023-02-24T15:47:45.885Z,14.39
2023-02-24T15:50:12.177Z,15.07
2023-02-24T15:52:38.463Z,14.33
2023-02-24T15:55:04.724Z,14.55
2023-02-24T15:57:31.022Z,15.20
2023-02-24T15:59:57.296Z,14.92
2023-02-24T16:02:23.667Z,14.18
2023-02-24T16:04:49.926Z,14.35
2023-02-24T16:07:16.213Z,13.49
2023-02-24T16:09:42.512Z,13.76
2023-02-24T16:12:08.878Z,13.37
2023-02-24T16:14:35.277Z,13.15
2023-02-24T16:17:01.574Z,13.96
2023-02-24T16:19:27.839Z,13.77
2023-02-24T16:21:54.151Z,13.63
2023-02-24T16:24:21.644Z,12.96
2023-02-24T16:26:48.132Z,13.55
2023-02-24T16:29:14.438Z,13.11
2023-02-24T16:31:40.966Z,13.91
2023-02-24T16:34:07.495Z,14.15
2023-02-24T16:36:33.787Z,13.46
2023-02-24T16:39:00.098Z,12.75
2023-02-24T16:41:26.376Z,12.75
2023-02-24T16:43:52.634Z,12.21
2023-02-24T16:46:19.020Z,11.45
2023-02-24T16:48:45.368Z,11.82
2023-02-24T16:51:11.631Z,12.03
2023-02-24T16:53:37.892Z,11.31
2023-02-24T16:56:04.157Z,11.87
2023-02-24T16:58:30.485Z,11.92
2023-02-24T17:00:56.947Z,11.49
2023-02-24T17:03:23.234Z,11.72
2023-02-24T17:05:49.515Z,11.52
2023-02-24T17:08:15.789Z,11.48
2023-02-24T17:10:42.065Z,11.55
2023-02-24T17:13:08.385Z,11.46
2023-02-24T17:15:34.653Z,11.54
2023-02-24T17:18:00.959Z,12.01
2023-02-24T17:20:27.219Z,12.23
2023-02-24T17:22:53.520Z,12.03
2023-02-24T17:25:19.839Z,11.13
2023-02-24T17:27:46.133Z,14.02
2023-02-24T17:30:12.421Z,13.19
2023-02-24T17:32:38.763Z,12.92
2023-02-24T17:35:05.075Z,12.75
2023-02-24T17:37:31.351Z,13.50
2023-02-24T17:39:57.667Z,12.77
2023-02-24T17:42:23.941Z,12.47
2023-02-24T17:44:50.219Z,12.87
2023-02-24T17:47:16.484Z,12.97
2023-02-24T17:49:42.758Z,13.29
2023-02-24T17:52:09.121Z,13.92
2023-02-24T17:54:35.385Z,14.16
2023-02-24T17:57:01.672Z,13.69
2023-02-24T17:59:27.946Z,13.29
2023-02-24T18:01:54.284Z,13.41
2023-02-24T18:04:20.603Z,13.89
2023-02-24T18:06:46.898Z,14.34
2023-02-24T18:09:13.231Z,14.27
2023-02-24T18:11:39.499Z,13.86
2023-02-24T18:14:05.808Z,14.40
2023-02-24T18:16:32.131Z,14.65
2023-02-24T18:18:58.437Z,15.46
2023-02-24T18:21:24.713Z,15.47
2023-02-24T18:23:50.994Z,15.17
2023-02-24T18:26:17.307Z,16.06
2023-02-24T18:28:43.602Z,16.83
2023-02-24T18:31:10.025Z,16.80
2023-02-24T18:33:36.505Z,16.28
2023-02-24T18:36:02.918Z,16.08
2023-02-24T18:38:29.223Z,16.28
2023-02-24T18:40:55.509Z,16.59
2023-02-24T18:43:21.809Z,15.91
2023-02-24T18:45:48.222Z,15.47
2023-02-24T18:48:14.512Z,15.34
2023-02-24T18:50:40.768Z,15.64
2023-02-24T18:53:07.089Z,15.86
2023-02-24T18:55:33.369Z,15.76
2023-02-24T18:57:59.628Z,15.79
2023-02-24T19:00:25.945Z,16.11
2023-02-24T19:02:52.357Z,16.37
2023-02-24T19:05:18.680Z,18.29
2023-02-24T19:07:45.004Z,17.86
2023-02-24T19:10:11.349Z,17.47
2023-02-24T19:12:37.629Z,15.96
2023-02-24T19:15:03.905Z,16.05
2023-02-24T19:17:30.251Z,16.09
2023-02-24T19:19:56.535Z,16.19
2023-02-24T19:22:22.792Z,16.25
2023-02-24T19:24:49.078Z,16.04
2023-02-24T19:27:15.373Z,17.85
2023-02-24T19:29:41.659Z,19.96
2023-02-24T19:32:08.108Z,17.87
2023-02-24T19:34:34.479Z,18.79
2023-02-24T19:37:00.738Z,18.45
2023-02-24T19:39:27.002Z,18.20
2023-02-24T19:41:53.264Z,17.99
2023-02-24T19:44:19.520Z,18.07
2023-02-24T19:46:45.813Z,17.23
2023-02-24T19:49:12.196Z,15.79
2023-02-24T19:51:38.464Z,14.28
2023-02-24T19:54:04.723Z,14.37
2023-02-24T19:56:30.974Z,14.81
2023-02-24T19:58:57.313Z,14.93
2023-02-24T20:01:23.633Z,15.64
2023-02-24T20:03:49.962Z,15.18
2023-02-24T20:06:16.482Z,16.08
2023-02-24T20:08:42.830Z,15.64
2023-02-24T20:11:09.103Z,15.95
2023-02-24T20:13:35.365Z,15.36
2023-02-24T20:16:01.669Z,14.82
2023-02-24T20:18:27.959Z,15.26
2023-02-24T20:20:54.260Z,14.64
2023-02-24T20:23:20.583Z,14.26
2023-02-24T20:25:46.870Z,14.29
2023-02-24T20:28:13.168Z,14.67
2023-02-24T20:30:39.536Z,14.79
2023-02-24T20:33:05.834Z,14.34
2023-02-24T20:35:32.093Z,13.31
2023-02-24T20:37:58.374Z,12.94
2023-02-24T20:40:24.719Z,12.98
2023-02-24T20:42:50.970Z,13.95
2023-02-24T20:45:17.380Z,13.06
2023-02-24T20:47:43.694Z,13.05
2023-02-24T20:50:09.979Z,11.95
2023-02-24T20:52:36.249Z,11.72
2023-02-24T20:55:02.592Z,12.04
2023-02-24T20:57:29.955Z,11.47
2023-02-24T21:00:03.267Z,10.96
2023-02-24T21:02:30.066Z,10.10
2023-02-24T21:04:56.370Z,10.02
2023-02-24T21:07:22.648Z,10.41
2023-02-24T21:09:48.925Z,10.92
2023-02-24T21:12:15.243Z,9.51
2023-02-24T21:14:41.547Z,9.87
2023-02-24T21:17:07.810Z,8.94
2023-02-24T21:19:34.109Z,7.34
2023-02-24T21:22:00.440Z,7.15
2023-02-24T21:24:26.697Z,6.78
2023-02-24T21:26:52.940Z,6.23
2023-02-24T21:29:19.201Z,6.13
2023-02-24T21:31:45.593Z,6.05
2023-02-24T21:34:11.980Z,5.51
2023-02-24T21:36:38.293Z,5.05
2023-02-24T21:39:04.551Z,4.31
2023-02-24T21:41:30.812Z,3.64
2023-02-24T21:43:57.082Z,3.33
2023-02-24T21:46:23.647Z,2.79
2023-02-24T21:48:50.247Z,3.14
2023-02-24T21:51:16.541Z,2.94
2023-02-24T21:53:42.879Z,3.01
2023-02-24T21:56:09.173Z,2.98
2023-02-24T21:58:35.460Z,2.88
2023-02-24T22:01:01.749Z,2.64
2023-02-24T22:03:28.125Z,2.72
2023-02-24T22:05:54.422Z,2.44
2023-02-24T22:08:20.705Z,2.36
2023-02-24T22:10:46.973Z,2.17
2023-02-24T22:13:13.230Z,2.06
2023-02-24T22:15:39.599Z,1.81
2023-02-24T22:18:05.949Z,2.68
2023-02-24T22:20:32.199Z,2.32
2023-02-24T22:22:58.469Z,2.23
2023-02-24T22:25:24.749Z,2.71
2023-02-24T22:27:51.019Z,3.23
2023-02-24T22:30:17.288Z,3.86
2023-02-24T22:32:43.569Z,4.27
2023-02-24T22:35:09.882Z,4.00
2023-02-24T22:37:36.241Z,3.05
2023-02-24T22:40:02.512Z,2.55
2023-02-24T22:42:28.793Z,3.12
2023-02-24T22:44:55.114Z,3.00
2023-02-24T22:47:21.430Z,2.03
2023-02-24T22:49:47.688Z,2.12
2023-02-24T22:52:13.926Z,1.99
2023-02-24T22:54:40.195Z,2.19
2023-02-24T22:57:06.460Z,2.46
2023-02-24T22:59:32.750Z,2.66
2023-02-24T23:01:59.001Z,2.47
2023-02-24T23:04:25.270Z,2.86
2023-02-24T23:06:51.544Z,3.01
2023-02-24T23:09:17.997Z,2.91
2023-02-24T23:11:44.267Z,3.02
2023-02-24T23:14:10.560Z,2.63
2023-02-24T23:16:36.856Z,2.37
2023-02-24T23:19:03.157Z,2.04
2023-02-24T23:21:29.456Z,2.09
2023-02-24T23:23:55.750Z,2.02
2023-02-24T23:26:22.221Z,2.04
2023-02-24T23:28:48.631Z,2.15
2023-02-24T23:31:15.004Z,1.94
2023-02-24T23:33:41.317Z,2.14
2023-02-24T23:36:07.558Z,1.99
2023-02-24T23:38:33.818Z,2.10
2023-02-24T23:41:00.111Z,2.11
2023-02-24T23:43:26.382Z,2.25
2023-02-24T23:45:52.664Z,2.07
2023-02-24T23:48:18.922Z,1.91
2023-02-24T23:50:45.191Z,2.04
2023-02-24T23:53:11.471Z,2.13
2023-02-24T23:55:37.726Z,2.11
2023-02-24T23:58:04.047Z,2.04
